sensor_id;sensor_type;location;lat;lon;timestamp;temperature;humidity
45803;DHT22;31504;51.716;9.184;2024-01-16T00:01:44;19.90;40.60
45803;DHT22;31504;51.716;9.184;2024-01-16T00:04:44;19.90;40.60
45803;DHT22;31504;51.716;9.184;2024-01-16T00:07:45;19.90;40.50
45803;DHT22;31504;51.716;9.184;2024-01-16T00:10:45;19.90;40.50
45803;DHT22;31504;51.716;9.184;2024-01-16T00:13:46;19.90;40.50
45803;DHT22;31504;51.716;9.184;2024-01-16T00:16:46;19.90;40.50
45803;DHT22;31504;51.716;9.184;2024-01-16T00:19:48;19.90;40.50
45803;DHT22;31504;51.716;9.184;2024-01-16T00:22:48;19.90;40.60
45803;DHT22;31504;51.716;9.184;2024-01-16T00:25:49;19.90;40.50
45803;DHT22;31504;51.716;9.184;2024-01-16T00:28:49;19.90;40.50
45803;DHT22;31504;51.716;9.184;2024-01-16T00:31:49;19.90;40.50
45803;DHT22;31504;51.716;9.184;2024-01-16T00:34:50;19.90;40.50
45803;DHT22;31504;51.716;9.184;2024-01-16T00:37:51;19.90;40.50
45803;DHT22;31504;51.716;9.184;2024-01-16T00:40:52;19.80;40.40
45803;DHT22;31504;51.716;9.184;2024-01-16T00:43:52;19.90;40.50
45803;DHT22;31504;51.716;9.184;2024-01-16T00:46:53;19.90;40.50
45803;DHT22;31504;51.716;9.184;2024-01-16T00:49:54;19.90;40.50
45803;DHT22;31504;51.716;9.184;2024-01-16T00:52:54;19.90;40.50
45803;DHT22;31504;51.716;9.184;2024-01-16T00:55:55;19.80;40.50
45803;DHT22;31504;51.716;9.184;2024-01-16T00:58:55;19.90;40.50
45803;DHT22;31504;51.716;9.184;2024-01-16T01:01:55;19.80;40.50
45803;DHT22;31504;51.716;9.184;2024-01-16T01:04:56;19.90;40.50
45803;DHT22;31504;51.716;9.184;2024-01-16T01:07:56;19.80;40.40
45803;DHT22;31504;51.716;9.184;2024-01-16T01:10:57;19.90;40.50
45803;DHT22;31504;51.716;9.184;2024-01-16T01:13:57;19.80;41.10
45803;DHT22;31504;51.716;9.184;2024-01-16T01:16:58;19.90;40.50
45803;DHT22;31504;51.716;9.184;2024-01-16T01:19:58;19.80;40.50
45803;DHT22;31504;51.716;9.184;2024-01-16T01:22:59;19.80;40.40
45803;DHT22;31504;51.716;9.184;2024-01-16T01:26:00;19.80;40.40
45803;DHT22;31504;51.716;9.184;2024-01-16T01:29:00;19.80;40.40
45803;DHT22;31504;51.716;9.184;2024-01-16T01:32:01;19.80;40.40
45803;DHT22;31504;51.716;9.184;2024-01-16T01:35:01;19.80;40.40
45803;DHT22;31504;51.716;9.184;2024-01-16T01:38:02;19.90;40.50
45803;DHT22;31504;51.716;9.184;2024-01-16T01:41:02;19.80;40.40
45803;DHT22;31504;51.716;9.184;2024-01-16T01:44:03;19.80;40.40
45803;DHT22;31504;51.716;9.184;2024-01-16T01:47:03;19.90;40.40
45803;DHT22;31504;51.716;9.184;2024-01-16T01:50:05;19.90;40.40
45803;DHT22;31504;51.716;9.184;2024-01-16T01:53:06;19.80;40.40
45803;DHT22;31504;51.716;9.184;2024-01-16T01:56:07;19.80;40.40
45803;DHT22;31504;51.716;9.184;2024-01-16T01:59:08;19.90;40.40
45803;DHT22;31504;51.716;9.184;2024-01-16T02:02:08;19.80;40.40
45803;DHT22;31504;51.716;9.184;2024-01-16T02:05:10;19.90;40.40
45803;DHT22;31504;51.716;9.184;2024-01-16T02:08:10;19.80;40.30
45803;DHT22;31504;51.716;9.184;2024-01-16T02:11:10;19.80;40.40
45803;DHT22;31504;51.716;9.184;2024-01-16T02:14:11;19.90;40.40
45803;DHT22;31504;51.716;9.184;2024-01-16T02:17:12;19.90;40.40
45803;DHT22;31504;51.716;9.184;2024-01-16T02:20:12;19.90;40.40
45803;DHT22;31504;51.716;9.184;2024-01-16T02:23:16;19.80;40.30
45803;DHT22;31504;51.716;9.184;2024-01-16T02:26:18;19.90;40.30
45803;DHT22;31504;51.716;9.184;2024-01-16T02:29:19;19.90;40.30
45803;DHT22;31504;51.716;9.184;2024-01-16T02:32:20;19.80;40.30
45803;DHT22;31504;51.716;9.184;2024-01-16T02:35:20;19.80;40.30
45803;DHT22;31504;51.716;9.184;2024-01-16T02:38:20;19.90;40.30
45803;DHT22;31504;51.716;9.184;2024-01-16T02:41:21;19.80;40.20
45803;DHT22;31504;51.716;9.184;2024-01-16T02:44:22;19.90;40.20
45803;DHT22;31504;51.716;9.184;2024-01-16T02:47:22;19.90;40.20
45803;DHT22;31504;51.716;9.184;2024-01-16T02:50:22;20.00;40.20
45803;DHT22;31504;51.716;9.184;2024-01-16T02:53:23;20.00;40.20
45803;DHT22;31504;51.716;9.184;2024-01-16T02:56:25;20.00;40.20
45803;DHT22;31504;51.716;9.184;2024-01-16T02:59:26;20.10;40.30
45803;DHT22;31504;51.716;9.184;2024-01-16T03:02:29;20.10;40.30
45803;DHT22;31504;51.716;9.184;2024-01-16T03:05:30;20.10;40.30
45803;DHT22;31504;51.716;9.184;2024-01-16T03:08:30;20.20;40.30
45803;DHT22;31504;51.716;9.184;2024-01-16T03:11:31;20.20;40.40
45803;DHT22;31504;51.716;9.184;2024-01-16T03:14:33;20.20;40.30
45803;DHT22;31504;51.716;9.184;2024-01-16T03:17:36;20.20;40.30
45803;DHT22;31504;51.716;9.184;2024-01-16T03:20:36;20.20;40.50
45803;DHT22;31504;51.716;9.184;2024-01-16T03:23:37;20.20;40.50
45803;DHT22;31504;51.716;9.184;2024-01-16T03:26:37;20.20;40.60
45803;DHT22;31504;51.716;9.184;2024-01-16T03:29:38;20.20;40.70
45803;DHT22;31504;51.716;9.184;2024-01-16T03:32:38;20.20;40.70
45803;DHT22;31504;51.716;9.184;2024-01-16T03:35:39;20.20;40.80
45803;DHT22;31504;51.716;9.184;2024-01-16T03:38:40;20.20;40.80
45803;DHT22;31504;51.716;9.184;2024-01-16T03:41:40;20.20;40.80
45803;DHT22;31504;51.716;9.184;2024-01-16T03:44:41;20.20;40.80
45803;DHT22;31504;51.716;9.184;2024-01-16T03:47:41;20.20;40.90
45803;DHT22;31504;51.716;9.184;2024-01-16T03:50:42;20.20;40.90
45803;DHT22;31504;51.716;9.184;2024-01-16T03:53:44;20.20;40.90
45803;DHT22;31504;51.716;9.184;2024-01-16T03:56:44;20.20;40.90
45803;DHT22;31504;51.716;9.184;2024-01-16T03:59:45;20.20;40.90
45803;DHT22;31504;51.716;9.184;2024-01-16T04:02:45;20.20;41.00
45803;DHT22;31504;51.716;9.184;2024-01-16T04:05:46;20.10;41.00
45803;DHT22;31504;51.716;9.184;2024-01-16T04:08:46;20.00;40.90
45803;DHT22;31504;51.716;9.184;2024-01-16T04:11:49;20.10;40.90
45803;DHT22;31504;51.716;9.184;2024-01-16T04:14:50;20.00;40.90
45803;DHT22;31504;51.716;9.184;2024-01-16T04:17:50;20.00;40.80
45803;DHT22;31504;51.716;9.184;2024-01-16T04:20:51;20.00;40.70
45803;DHT22;31504;51.716;9.184;2024-01-16T04:23:51;20.00;40.70
45803;DHT22;31504;51.716;9.184;2024-01-16T04:26:52;20.00;40.70
45803;DHT22;31504;51.716;9.184;2024-01-16T04:29:52;20.00;40.70
45803;DHT22;31504;51.716;9.184;2024-01-16T04:32:53;20.00;40.70
45803;DHT22;31504;51.716;9.184;2024-01-16T04:35:54;20.00;40.60
45803;DHT22;31504;51.716;9.184;2024-01-16T04:38:54;20.00;40.60
45803;DHT22;31504;51.716;9.184;2024-01-16T04:41:55;20.00;41.20
45803;DHT22;31504;51.716;9.184;2024-01-16T04:44:55;20.00;40.50
45803;DHT22;31504;51.716;9.184;2024-01-16T04:47:55;20.00;40.60
45803;DHT22;31504;51.716;9.184;2024-01-16T04:50:56;20.00;40.50
45803;DHT22;31504;51.716;9.184;2024-01-16T04:53:57;20.00;40.50
45803;DHT22;31504;51.716;9.184;2024-01-16T04:56:57;19.90;40.40
45803;DHT22;31504;51.716;9.184;2024-01-16T04:59:58;19.90;40.40
45803;DHT22;31504;51.716;9.184;2024-01-16T05:02:58;19.90;40.40
45803;DHT22;31504;51.716;9.184;2024-01-16T05:05:59;19.90;40.30
45803;DHT22;31504;51.716;9.184;2024-01-16T05:08:59;20.00;40.30
45803;DHT22;31504;51.716;9.184;2024-01-16T05:12:00;19.90;40.40
45803;DHT22;31504;51.716;9.184;2024-01-16T05:15:01;19.90;40.50
45803;DHT22;31504;51.716;9.184;2024-01-16T05:18:01;19.90;40.50
45803;DHT22;31504;51.716;9.184;2024-01-16T05:21:02;19.90;40.40
45803;DHT22;31504;51.716;9.184;2024-01-16T05:24:02;19.90;40.40
45803;DHT22;31504;51.716;9.184;2024-01-16T05:27:03;19.90;40.30
45803;DHT22;31504;51.716;9.184;2024-01-16T05:30:05;19.90;40.20
45803;DHT22;31504;51.716;9.184;2024-01-16T05:33:05;19.90;40.20
45803;DHT22;31504;51.716;9.184;2024-01-16T05:36:07;19.90;40.20
45803;DHT22;31504;51.716;9.184;2024-01-16T05:39:07;19.90;40.20
45803;DHT22;31504;51.716;9.184;2024-01-16T05:42:09;20.00;40.20
45803;DHT22;31504;51.716;9.184;2024-01-16T05:45:09;19.90;40.20
45803;DHT22;31504;51.716;9.184;2024-01-16T05:48:10;19.90;40.20
45803;DHT22;31504;51.716;9.184;2024-01-16T05:51:11;20.00;40.20
45803;DHT22;31504;51.716;9.184;2024-01-16T05:54:11;19.90;40.20
45803;DHT22;31504;51.716;9.184;2024-01-16T05:57:11;19.90;40.20
45803;DHT22;31504;51.716;9.184;2024-01-16T06:00:12;19.90;40.20
45803;DHT22;31504;51.716;9.184;2024-01-16T06:03:13;19.90;40.20
45803;DHT22;31504;51.716;9.184;2024-01-16T06:06:13;19.90;40.20
45803;DHT22;31504;51.716;9.184;2024-01-16T06:09:14;19.90;40.20
45803;DHT22;31504;51.716;9.184;2024-01-16T06:12:14;19.90;40.20
45803;DHT22;31504;51.716;9.184;2024-01-16T06:15:15;19.90;40.20
45803;DHT22;31504;51.716;9.184;2024-01-16T06:18:15;20.00;40.20
45803;DHT22;31504;51.716;9.184;2024-01-16T06:21:15;19.90;40.20
45803;DHT22;31504;51.716;9.184;2024-01-16T06:24:16;19.90;40.20
45803;DHT22;31504;51.716;9.184;2024-01-16T06:27:17;19.90;40.20
45803;DHT22;31504;51.716;9.184;2024-01-16T06:30:19;19.90;40.20
45803;DHT22;31504;51.716;9.184;2024-01-16T06:33:19;19.90;40.20
45803;DHT22;31504;51.716;9.184;2024-01-16T06:36:20;19.90;40.80
45803;DHT22;31504;51.716;9.184;2024-01-16T06:39:20;19.90;40.20
45803;DHT22;31504;51.716;9.184;2024-01-16T06:42:21;19.90;40.20
45803;DHT22;31504;51.716;9.184;2024-01-16T06:45:21;19.90;40.20
45803;DHT22;31504;51.716;9.184;2024-01-16T06:48:22;19.90;40.20
45803;DHT22;31504;51.716;9.184;2024-01-16T06:51:22;19.90;40.20
45803;DHT22;31504;51.716;9.184;2024-01-16T06:54:22;19.90;40.20
45803;DHT22;31504;51.716;9.184;2024-01-16T06:57:23;19.90;40.20
45803;DHT22;31504;51.716;9.184;2024-01-16T07:00:24;19.90;40.20
45803;DHT22;31504;51.716;9.184;2024-01-16T07:03:26;19.90;40.20
45803;DHT22;31504;51.716;9.184;2024-01-16T07:06:26;19.90;40.20
45803;DHT22;31504;51.716;9.184;2024-01-16T07:09:27;19.90;40.20
45803;DHT22;31504;51.716;9.184;2024-01-16T07:12:27;19.90;40.20
45803;DHT22;31504;51.716;9.184;2024-01-16T07:15:28;19.90;40.20
45803;DHT22;31504;51.716;9.184;2024-01-16T07:18:28;19.90;40.20
45803;DHT22;31504;51.716;9.184;2024-01-16T07:21:29;19.90;40.20
45803;DHT22;31504;51.716;9.184;2024-01-16T07:24:29;19.90;40.20
45803;DHT22;31504;51.716;9.184;2024-01-16T07:27:29;19.90;40.20
45803;DHT22;31504;51.716;9.184;2024-01-16T07:30:30;19.90;40.20
45803;DHT22;31504;51.716;9.184;2024-01-16T07:33:31;19.90;40.20
45803;DHT22;31504;51.716;9.184;2024-01-16T07:36:31;19.90;40.20
45803;DHT22;31504;51.716;9.184;2024-01-16T07:39:31;19.90;40.20
45803;DHT22;31504;51.716;9.184;2024-01-16T07:42:32;19.90;40.20
45803;DHT22;31504;51.716;9.184;2024-01-16T07:45:34;19.90;40.20
45803;DHT22;31504;51.716;9.184;2024-01-16T07:48:35;19.90;40.20
45803;DHT22;31504;51.716;9.184;2024-01-16T07:51:35;19.90;40.20
45803;DHT22;31504;51.716;9.184;2024-01-16T07:54:35;19.90;40.20
45803;DHT22;31504;51.716;9.184;2024-01-16T07:57:36;19.90;40.20
45803;DHT22;31504;51.716;9.184;2024-01-16T08:00:36;19.90;40.20
45803;DHT22;31504;51.716;9.184;2024-01-16T08:03:37;19.90;40.20
45803;DHT22;31504;51.716;9.184;2024-01-16T08:06:38;19.90;40.20
45803;DHT22;31504;51.716;9.184;2024-01-16T08:09:38;19.90;40.20
45803;DHT22;31504;51.716;9.184;2024-01-16T08:12:39;19.90;40.20
45803;DHT22;31504;51.716;9.184;2024-01-16T08:15:39;19.90;40.20
45803;DHT22;31504;51.716;9.184;2024-01-16T08:18:40;19.80;40.10
45803;DHT22;31504;51.716;9.184;2024-01-16T08:21:40;19.90;40.20
45803;DHT22;31504;51.716;9.184;2024-01-16T08:24:41;19.90;40.20
45803;DHT22;31504;51.716;9.184;2024-01-16T08:27:41;19.90;40.20
45803;DHT22;31504;51.716;9.184;2024-01-16T08:30:43;19.90;40.20
45803;DHT22;31504;51.716;9.184;2024-01-16T08:33:44;19.90;40.20
45803;DHT22;31504;51.716;9.184;2024-01-16T08:36:45;19.90;40.80
45803;DHT22;31504;51.716;9.184;2024-01-16T08:39:46;19.80;40.10
45803;DHT22;31504;51.716;9.184;2024-01-16T08:42:46;19.90;40.20
45803;DHT22;31504;51.716;9.184;2024-01-16T08:45:51;19.90;40.20
45803;DHT22;31504;51.716;9.184;2024-01-16T08:48:52;19.90;40.20
45803;DHT22;31504;51.716;9.184;2024-01-16T08:51:52;19.90;40.20
45803;DHT22;31504;51.716;9.184;2024-01-16T08:54:52;19.90;40.20
45803;DHT22;31504;51.716;9.184;2024-01-16T08:57:53;19.80;40.10
45803;DHT22;31504;51.716;9.184;2024-01-16T09:00:53;19.80;40.10
45803;DHT22;31504;51.716;9.184;2024-01-16T09:03:54;19.80;40.10
45803;DHT22;31504;51.716;9.184;2024-01-16T09:06:54;19.90;40.20
45803;DHT22;31504;51.716;9.184;2024-01-16T09:09:55;19.90;40.20
45803;DHT22;31504;51.716;9.184;2024-01-16T09:12:55;19.90;40.20
45803;DHT22;31504;51.716;9.184;2024-01-16T09:15:56;19.90;40.20
45803;DHT22;31504;51.716;9.184;2024-01-16T09:18:56;19.90;40.20
45803;DHT22;31504;51.716;9.184;2024-01-16T09:21:56;19.90;40.20
45803;DHT22;31504;51.716;9.184;2024-01-16T09:24:57;19.80;40.10
45803;DHT22;31504;51.716;9.184;2024-01-16T09:27:57;19.90;40.20
45803;DHT22;31504;51.716;9.184;2024-01-16T09:30:58;19.90;40.20
45803;DHT22;31504;51.716;9.184;2024-01-16T09:33:58;19.90;40.20
45803;DHT22;31504;51.716;9.184;2024-01-16T09:36:59;19.90;40.20
45803;DHT22;31504;51.716;9.184;2024-01-16T09:40:02;19.90;40.20
45803;DHT22;31504;51.716;9.184;2024-01-16T09:43:05;19.90;40.20
45803;DHT22;31504;51.716;9.184;2024-01-16T09:46:08;19.90;40.20
45803;DHT22;31504;51.716;9.184;2024-01-16T09:49:10;19.90;40.20
45803;DHT22;31504;51.716;9.184;2024-01-16T09:52:11;19.90;40.20
45803;DHT22;31504;51.716;9.184;2024-01-16T09:55:12;19.90;40.20
45803;DHT22;31504;51.716;9.184;2024-01-16T09:58:12;19.90;40.20
45803;DHT22;31504;51.716;9.184;2024-01-16T10:01:14;19.80;40.10
45803;DHT22;31504;51.716;9.184;2024-01-16T10:04:16;19.90;40.20
45803;DHT22;31504;51.716;9.184;2024-01-16T10:07:16;19.90;40.20
45803;DHT22;31504;51.716;9.184;2024-01-16T10:10:17;19.90;40.20
45803;DHT22;31504;51.716;9.184;2024-01-16T10:13:18;19.80;40.10
45803;DHT22;31504;51.716;9.184;2024-01-16T10:16:19;19.90;40.20
45803;DHT22;31504;51.716;9.184;2024-01-16T10:19:21;19.90;40.20
45803;DHT22;31504;51.716;9.184;2024-01-16T10:22:22;19.90;40.20
45803;DHT22;31504;51.716;9.184;2024-01-16T10:25:24;19.90;40.20
45803;DHT22;31504;51.716;9.184;2024-01-16T10:28:25;19.90;40.20
45803;DHT22;31504;51.716;9.184;2024-01-16T10:31:25;19.90;40.20
45803;DHT22;31504;51.716;9.184;2024-01-16T10:34:29;19.90;40.20
45803;DHT22;31504;51.716;9.184;2024-01-16T10:37:31;19.90;40.20
45803;DHT22;31504;51.716;9.184;2024-01-16T10:40:40;19.90;40.20
45803;DHT22;31504;51.716;9.184;2024-01-16T10:43:41;19.80;40.10
45803;DHT22;31504;51.716;9.184;2024-01-16T10:46:42;19.80;40.10
45803;DHT22;31504;51.716;9.184;2024-01-16T10:49:42;19.80;40.10
45803;DHT22;31504;51.716;9.184;2024-01-16T10:52:49;19.80;40.10
45803;DHT22;31504;51.716;9.184;2024-01-16T10:55:50;19.90;40.20
45803;DHT22;31504;51.716;9.184;2024-01-16T10:58:57;19.90;40.20
45803;DHT22;31504;51.716;9.184;2024-01-16T11:01:58;19.90;40.20
45803;DHT22;31504;51.716;9.184;2024-01-16T11:05:00;19.90;40.20
45803;DHT22;31504;51.716;9.184;2024-01-16T11:08:01;19.80;40.10
45803;DHT22;31504;51.716;9.184;2024-01-16T11:11:01;19.90;40.20
45803;DHT22;31504;51.716;9.184;2024-01-16T11:14:03;19.90;40.20
45803;DHT22;31504;51.716;9.184;2024-01-16T11:17:04;19.90;40.20
45803;DHT22;31504;51.716;9.184;2024-01-16T11:20:05;19.90;40.20
45803;DHT22;31504;51.716;9.184;2024-01-16T11:23:10;19.90;40.20
45803;DHT22;31504;51.716;9.184;2024-01-16T11:26:27;19.80;40.10
45803;DHT22;31504;51.716;9.184;2024-01-16T11:32:38;19.80;40.10
45803;DHT22;31504;51.716;9.184;2024-01-16T11:35:40;19.80;40.10
45803;DHT22;31504;51.716;9.184;2024-01-16T11:38:41;19.80;40.10
45803;DHT22;31504;51.716;9.184;2024-01-16T11:48:27;19.80;40.10
45803;DHT22;31504;51.716;9.184;2024-01-16T11:51:27;19.80;40.10
45803;DHT22;31504;51.716;9.184;2024-01-16T11:54:28;19.80;40.10
45803;DHT22;31504;51.716;9.184;2024-01-16T11:57:36;19.80;40.70
45803;DHT22;31504;51.716;9.184;2024-01-16T12:00:41;19.80;40.10
45803;DHT22;31504;51.716;9.184;2024-01-16T12:04:24;19.80;40.10
45803;DHT22;31504;51.716;9.184;2024-01-16T12:07:20;19.90;40.20
45803;DHT22;31504;51.716;9.184;2024-01-16T12:10:24;19.90;40.80
45803;DHT22;31504;51.716;9.184;2024-01-16T12:13:25;19.80;40.10
45803;DHT22;31504;51.716;9.184;2024-01-16T12:16:25;19.90;40.00
45803;DHT22;31504;51.716;9.184;2024-01-16T12:19:27;19.90;40.00
45803;DHT22;31504;51.716;9.184;2024-01-16T12:22:28;19.90;40.10
45803;DHT22;31504;51.716;9.184;2024-01-16T12:25:29;20.00;40.20
45803;DHT22;31504;51.716;9.184;2024-01-16T12:28:30;20.00;40.50
45803;DHT22;31504;51.716;9.184;2024-01-16T12:31:31;20.00;40.20
45803;DHT22;31504;51.716;9.184;2024-01-16T12:34:31;20.10;40.30
45803;DHT22;31504;51.716;9.184;2024-01-16T12:37:32;20.10;40.30
45803;DHT22;31504;51.716;9.184;2024-01-16T12:40:33;20.10;40.30
45803;DHT22;31504;51.716;9.184;2024-01-16T12:43:34;20.10;40.30
45803;DHT22;31504;51.716;9.184;2024-01-16T12:46:35;20.10;40.00
45803;DHT22;31504;51.716;9.184;2024-01-16T12:49:42;20.10;39.80
45803;DHT22;31504;51.716;9.184;2024-01-16T12:52:45;20.10;39.80
45803;DHT22;31504;51.716;9.184;2024-01-16T12:55:45;20.10;39.80
45803;DHT22;31504;51.716;9.184;2024-01-16T12:58:46;20.10;39.80
45803;DHT22;31504;51.716;9.184;2024-01-16T13:01:46;20.20;39.80
45803;DHT22;31504;51.716;9.184;2024-01-16T13:04:47;20.20;40.00
45803;DHT22;31504;51.716;9.184;2024-01-16T13:07:59;20.20;40.00
45803;DHT22;31504;51.716;9.184;2024-01-16T13:11:05;20.20;40.20
45803;DHT22;31504;51.716;9.184;2024-01-16T13:14:06;20.30;40.40
45803;DHT22;31504;51.716;9.184;2024-01-16T13:17:06;20.30;40.40
45803;DHT22;31504;51.716;9.184;2024-01-16T13:20:08;20.30;40.40
45803;DHT22;31504;51.716;9.184;2024-01-16T13:23:12;20.20;40.50
45803;DHT22;31504;51.716;9.184;2024-01-16T13:26:14;20.20;40.60
45803;DHT22;31504;51.716;9.184;2024-01-16T13:29:14;20.20;40.60
45803;DHT22;31504;51.716;9.184;2024-01-16T13:32:15;20.20;40.60
45803;DHT22;31504;51.716;9.184;2024-01-16T13:35:16;20.20;40.60
45803;DHT22;31504;51.716;9.184;2024-01-16T13:38:16;20.20;40.60
45803;DHT22;31504;51.716;9.184;2024-01-16T13:41:17;20.20;40.60
45803;DHT22;31504;51.716;9.184;2024-01-16T13:44:17;20.20;40.60
45803;DHT22;31504;51.716;9.184;2024-01-16T13:47:17;20.30;40.60
45803;DHT22;31504;51.716;9.184;2024-01-16T13:50:19;20.30;40.50
45803;DHT22;31504;51.716;9.184;2024-01-16T13:53:19;20.30;40.50
45803;DHT22;31504;51.716;9.184;2024-01-16T13:56:20;20.30;40.40
45803;DHT22;31504;51.716;9.184;2024-01-16T13:59:21;20.30;40.40
45803;DHT22;31504;51.716;9.184;2024-01-16T14:02:21;20.30;40.50
45803;DHT22;31504;51.716;9.184;2024-01-16T14:05:22;20.30;40.60
45803;DHT22;31504;51.716;9.184;2024-01-16T14:08:22;20.30;40.60
45803;DHT22;31504;51.716;9.184;2024-01-16T14:11:24;20.40;41.20
45803;DHT22;31504;51.716;9.184;2024-01-16T14:14:25;20.30;40.60
45803;DHT22;31504;51.716;9.184;2024-01-16T14:17:25;20.30;40.60
45803;DHT22;31504;51.716;9.184;2024-01-16T14:20:26;20.30;40.50
45803;DHT22;31504;51.716;9.184;2024-01-16T14:23:26;20.30;40.40
45803;DHT22;31504;51.716;9.184;2024-01-16T14:26:27;20.30;40.40
45803;DHT22;31504;51.716;9.184;2024-01-16T14:29:28;20.30;40.40
45803;DHT22;31504;51.716;9.184;2024-01-16T14:32:29;20.30;40.40
45803;DHT22;31504;51.716;9.184;2024-01-16T14:35:29;20.30;40.20
45803;DHT22;31504;51.716;9.184;2024-01-16T14:38:30;20.40;40.10
45803;DHT22;31504;51.716;9.184;2024-01-16T14:41:30;20.40;40.10
45803;DHT22;31504;51.716;9.184;2024-01-16T14:44:31;20.40;40.00
45803;DHT22;31504;51.716;9.184;2024-01-16T14:47:32;20.40;39.90
45803;DHT22;31504;51.716;9.184;2024-01-16T14:50:33;20.40;39.80
45803;DHT22;31504;51.716;9.184;2024-01-16T14:53:33;20.40;39.90
45803;DHT22;31504;51.716;9.184;2024-01-16T14:56:34;20.40;39.80
45803;DHT22;31504;51.716;9.184;2024-01-16T14:59:34;20.40;39.80
45803;DHT22;31504;51.716;9.184;2024-01-16T15:02:34;20.40;39.70
45803;DHT22;31504;51.716;9.184;2024-01-16T15:05:35;20.40;39.70
45803;DHT22;31504;51.716;9.184;2024-01-16T15:08:35;20.40;39.60
45803;DHT22;31504;51.716;9.184;2024-01-16T15:11:36;20.40;39.50
45803;DHT22;31504;51.716;9.184;2024-01-16T15:14:36;20.40;39.40
45803;DHT22;31504;51.716;9.184;2024-01-16T15:17:37;20.50;39.40
45803;DHT22;31504;51.716;9.184;2024-01-16T15:20:37;20.40;39.40
45803;DHT22;31504;51.716;9.184;2024-01-16T15:23:37;20.50;39.40
45803;DHT22;31504;51.716;9.184;2024-01-16T15:26:38;20.40;39.40
45803;DHT22;31504;51.716;9.184;2024-01-16T15:29:38;20.40;39.30
45803;DHT22;31504;51.716;9.184;2024-01-16T15:32:39;20.50;39.40
45803;DHT22;31504;51.716;9.184;2024-01-16T15:35:40;20.50;39.60
45803;DHT22;31504;51.716;9.184;2024-01-16T15:38:40;20.50;39.40
45803;DHT22;31504;51.716;9.184;2024-01-16T15:41:41;20.50;39.50
45803;DHT22;31504;51.716;9.184;2024-01-16T15:44:42;20.50;39.60
45803;DHT22;31504;51.716;9.184;2024-01-16T15:47:43;20.50;39.60
45803;DHT22;31504;51.716;9.184;2024-01-16T15:50:43;20.50;39.60
45803;DHT22;31504;51.716;9.184;2024-01-16T15:53:44;20.50;39.80
45803;DHT22;31504;51.716;9.184;2024-01-16T15:56:44;20.50;39.80
45803;DHT22;31504;51.716;9.184;2024-01-16T15:59:45;20.50;39.90
45803;DHT22;31504;51.716;9.184;2024-01-16T16:02:45;20.40;39.80
45803;DHT22;31504;51.716;9.184;2024-01-16T16:05:48;20.50;39.90
45803;DHT22;31504;51.716;9.184;2024-01-16T16:08:48;20.50;40.00
45803;DHT22;31504;51.716;9.184;2024-01-16T16:11:49;20.50;40.10
45803;DHT22;31504;51.716;9.184;2024-01-16T16:14:50;20.50;40.00
45803;DHT22;31504;51.716;9.184;2024-01-16T16:17:50;20.50;40.00
45803;DHT22;31504;51.716;9.184;2024-01-16T16:20:51;20.50;40.00
45803;DHT22;31504;51.716;9.184;2024-01-16T16:23:51;20.50;40.00
45803;DHT22;31504;51.716;9.184;2024-01-16T16:26:52;20.50;40.00
45803;DHT22;31504;51.716;9.184;2024-01-16T16:29:54;20.50;40.00
45803;DHT22;31504;51.716;9.184;2024-01-16T16:32:55;20.50;40.00
45803;DHT22;31504;51.716;9.184;2024-01-16T16:35:55;20.50;40.00
45803;DHT22;31504;51.716;9.184;2024-01-16T16:38:56;20.50;40.00
45803;DHT22;31504;51.716;9.184;2024-01-16T16:41:57;20.50;40.20
45803;DHT22;31504;51.716;9.184;2024-01-16T16:44:57;20.50;40.30
45803;DHT22;31504;51.716;9.184;2024-01-16T16:47:59;20.50;40.20
45803;DHT22;31504;51.716;9.184;2024-01-16T16:50:59;20.50;40.30
45803;DHT22;31504;51.716;9.184;2024-01-16T16:54:00;20.50;40.30
45803;DHT22;31504;51.716;9.184;2024-01-16T16:57:00;20.50;40.30
45803;DHT22;31504;51.716;9.184;2024-01-16T17:00:01;20.60;40.50
45803;DHT22;31504;51.716;9.184;2024-01-16T17:03:01;20.60;40.60
45803;DHT22;31504;51.716;9.184;2024-01-16T17:06:04;20.60;40.50
45803;DHT22;31504;51.716;9.184;2024-01-16T17:09:05;20.60;40.50
45803;DHT22;31504;51.716;9.184;2024-01-16T17:12:11;20.60;40.50
45803;DHT22;31504;51.716;9.184;2024-01-16T17:15:13;20.60;41.00
45803;DHT22;31504;51.716;9.184;2024-01-16T17:18:14;20.60;40.50
45803;DHT22;31504;51.716;9.184;2024-01-16T17:21:15;20.60;40.50
45803;DHT22;31504;51.716;9.184;2024-01-16T17:24:16;20.60;40.50
45803;DHT22;31504;51.716;9.184;2024-01-16T17:27:17;20.60;40.50
45803;DHT22;31504;51.716;9.184;2024-01-16T17:30:17;20.60;40.70
45803;DHT22;31504;51.716;9.184;2024-01-16T17:33:18;20.50;40.70
45803;DHT22;31504;51.716;9.184;2024-01-16T17:36:19;20.50;41.40
45803;DHT22;31504;51.716;9.184;2024-01-16T17:39:20;20.50;40.90
45803;DHT22;31504;51.716;9.184;2024-01-16T17:42:21;20.50;41.00
45803;DHT22;31504;51.716;9.184;2024-01-16T17:45:23;20.60;41.00
45803;DHT22;31504;51.716;9.184;2024-01-16T17:48:23;20.60;40.90
45803;DHT22;31504;51.716;9.184;2024-01-16T17:51:24;20.60;40.90
45803;DHT22;31504;51.716;9.184;2024-01-16T17:54:25;20.60;41.00
45803;DHT22;31504;51.716;9.184;2024-01-16T17:57:26;20.60;41.00
45803;DHT22;31504;51.716;9.184;2024-01-16T18:00:27;20.60;40.90
45803;DHT22;31504;51.716;9.184;2024-01-16T18:03:32;20.60;40.90
45803;DHT22;31504;51.716;9.184;2024-01-16T18:06:32;20.60;40.90
45803;DHT22;31504;51.716;9.184;2024-01-16T18:09:34;20.60;41.00
45803;DHT22;31504;51.716;9.184;2024-01-16T18:12:38;20.60;40.90
45803;DHT22;31504;51.716;9.184;2024-01-16T18:15:39;20.60;40.70
45803;DHT22;31504;51.716;9.184;2024-01-16T18:18:39;20.60;40.70
45803;DHT22;31504;51.716;9.184;2024-01-16T18:21:40;20.60;40.80
45803;DHT22;31504;51.716;9.184;2024-01-16T18:24:41;20.70;40.90
45803;DHT22;31504;51.716;9.184;2024-01-16T18:27:41;20.70;40.90
45803;DHT22;31504;51.716;9.184;2024-01-16T18:30:43;20.70;40.90
45803;DHT22;31504;51.716;9.184;2024-01-16T18:33:44;20.60;40.80
45803;DHT22;31504;51.716;9.184;2024-01-16T18:36:51;20.60;40.80
45803;DHT22;31504;51.716;9.184;2024-01-16T18:39:52;20.70;40.80
45803;DHT22;31504;51.716;9.184;2024-01-16T18:42:53;20.60;40.80
45803;DHT22;31504;51.716;9.184;2024-01-16T18:45:53;20.60;40.90
45803;DHT22;31504;51.716;9.184;2024-01-16T18:48:54;20.60;40.80
45803;DHT22;31504;51.716;9.184;2024-01-16T18:51:54;20.60;40.80
45803;DHT22;31504;51.716;9.184;2024-01-16T18:54:56;20.60;40.90
45803;DHT22;31504;51.716;9.184;2024-01-16T18:57:57;20.70;40.90
45803;DHT22;31504;51.716;9.184;2024-01-16T19:01:02;20.70;40.90
45803;DHT22;31504;51.716;9.184;2024-01-16T19:04:02;20.70;40.90
45803;DHT22;31504;51.716;9.184;2024-01-16T19:07:04;20.60;40.90
45803;DHT22;31504;51.716;9.184;2024-01-16T19:10:12;20.60;41.40
45803;DHT22;31504;51.716;9.184;2024-01-16T19:13:13;20.60;40.90